Time;durP1;ratioP1;P1;durP2;ratioP2;P2;SDS_P1;SDS_P2;PMS_P1;PMS_P2;Temp;Humidity;BMP_temperature;BMP_pressure;BME280_temperature;BME280_humidity;BME280_pressure;Samples;Min_cycle;Max_cycle;Signal;HPM_P1;HPM_P2
2022/03/15 00:00:20;;;;;;;57.38;26.93;;;;;;;5.25;39.00;100497.37;1788476;80;21540;-44
2022/03/15 00:02:44;;;;;;;64.85;28.38;;;;;;;5.22;39.44;100499.59;1787804;80;20987;-41
2022/03/15 00:05:10;;;;;;;66.62;28.05;;;;;;;5.20;38.98;100489.59;1788471;80;21035;-41
2022/03/15 00:07:35;;;;;;;69.65;28.77;;;;;;;5.16;39.06;100494.44;1788709;80;20985;-45
2022/03/15 00:10:03;;;;;;;62.58;28.85;;;;;;;5.15;39.28;100495.34;1788608;80;20961;-41
2022/03/15 00:12:29;;;;;;;63.17;27.17;;;;;;;5.13;39.22;100499.69;1788685;80;21430;-43
2022/03/15 00:14:55;;;;;;;56.63;27.50;;;;;;;5.12;39.14;100495.38;1788598;80;21505;-46
2022/03/15 00:17:23;;;;;;;58.38;27.65;;;;;;;5.08;39.63;100492.39;1788536;80;20953;-42
2022/03/15 00:19:49;;;;;;;57.35;27.37;;;;;;;5.04;39.42;100488.08;1788614;80;20969;-45
2022/03/15 00:22:15;;;;;;;56.63;27.20;;;;;;;5.03;39.66;100490.28;1788672;80;20976;-46
2022/03/15 00:24:42;;;;;;;56.33;26.00;;;;;;;5.02;39.58;100489.84;1788641;80;21516;-44
2022/03/15 00:27:10;;;;;;;;;;;;;;;4.99;39.88;100492.06;1791310;80;20980;-47
2022/03/15 00:29:37;;;;;;;53.60;25.08;;;;;;;4.96;41.39;100485.58;1758096;80;20409;-43
2022/03/15 00:32:05;;;;;;;55.95;25.40;;;;;;;4.95;39.96;100488.64;1788903;80;20969;-39
2022/03/15 00:34:31;;;;;;;54.42;26.93;;;;;;;4.96;40.13;100494.25;1788610;80;21404;-46
2022/03/15 00:36:56;;;;;;;55.23;26.20;;;;;;;4.93;40.41;100498.64;1788527;80;20997;-43
2022/03/15 00:39:22;;;;;;;57.10;25.50;;;;;;;4.90;40.09;100499.56;1788567;80;21042;-46
2022/03/15 00:41:48;;;;;;;54.45;26.60;;;;;;;4.88;40.56;100501.33;1788671;80;21004;-48
2022/03/15 00:44:14;;;;;;;57.17;25.48;;;;;;;4.86;40.41;100501.79;1788638;80;21019;-44
2022/03/15 00:46:40;;;;;;;56.55;26.02;;;;;;;4.81;41.50;100499.23;1788643;80;21450;-45
2022/03/15 00:49:05;;;;;;;60.30;26.25;;;;;;;4.80;40.89;100497.52;1788574;80;21438;-42
2022/03/15 00:51:34;;;;;;;55.63;26.52;;;;;;;4.81;40.93;100500.53;1788623;80;20961;-47
2022/03/15 00:54:00;;;;;;;55.40;26.95;;;;;;;4.79;40.78;100496.23;1788410;80;21008;-43
2022/03/15 00:56:26;;;;;;;54.93;26.45;;;;;;;4.76;41.15;100494.50;1782020;80;21486;-47
2022/03/15 00:58:51;;;;;;;51.98;25.75;;;;;;;4.76;41.40;100493.65;1780258;80;20993;-44
2022/03/15 01:01:17;;;;;;;50.65;26.10;;;;;;;4.74;41.53;100484.99;1780236;80;20953;-48
2022/03/15 01:03:43;;;;;;;52.08;25.65;;;;;;;4.74;41.58;100479.78;1780249;80;20969;-45
2022/03/15 01:06:09;;;;;;;51.88;25.85;;;;;;;4.72;41.74;100488.92;1780357;80;21016;-40
2022/03/15 01:08:35;;;;;;;56.48;25.77;;;;;;;4.72;41.30;100487.61;1780292;80;21465;-42
2022/03/15 01:11:03;;;;;;;58.78;26.30;;;;;;;4.65;41.84;100487.27;1780154;80;20981;-43
2022/03/15 01:13:28;;;;;;;57.67;27.17;;;;;;;4.65;42.23;100483.80;1780313;80;21005;-49
2022/03/15 01:15:54;;;;;;;57.98;25.30;;;;;;;4.60;42.93;100480.82;1780086;80;20993;-45
2022/03/15 01:18:20;;;;;;;60.10;27.95;;;;;;;4.58;42.87;100483.89;1780332;80;20996;-46
2022/03/15 01:20:46;;;;;;;49.10;26.27;;;;;;;4.59;42.14;100479.08;1780401;80;21146;-45
2022/03/15 01:23:13;;;;;;;56.68;26.07;;;;;;;4.59;42.57;100484.30;1780387;80;21040;-52
2022/03/15 01:25:39;;;;;;;56.45;29.25;;;;;;;4.59;42.95;100484.74;1780482;80;21035;-42
2022/03/15 01:28:05;;;;;;;57.67;27.67;;;;;;;4.59;43.32;100488.20;1780245;80;21513;-45
2022/03/15 01:30:31;;;;;;;62.62;27.58;;;;;;;4.59;43.02;100487.34;1780465;80;21031;-51
2022/03/15 01:32:57;;;;;;;56.75;27.17;;;;;;;4.59;43.93;100486.90;1780309;80;20988;-51
2022/03/15 01:35:23;;;;;;;52.10;25.68;;;;;;;4.62;42.71;100479.51;1780333;80;21016;-53
2022/03/15 01:37:49;;;;;;;57.78;27.13;;;;;;;4.63;42.96;100481.66;1780280;80;20989;-47
2022/03/15 01:40:15;;;;;;;54.45;27.48;;;;;;;4.63;42.67;100484.27;1780287;80;20985;-51
2022/03/15 01:42:41;;;;;;;53.98;26.40;;;;;;;4.63;42.73;100482.97;1780133;80;20965;-41
2022/03/15 01:45:09;;;;;;;49.75;26.97;;;;;;;4.63;44.65;100488.17;1780385;80;21481;-40
2022/03/15 01:47:35;;;;;;;54.83;27.98;;;;;;;4.61;43.26;100491.64;1780305;80;21004;-40
2022/03/15 01:50:02;;;;;;;58.33;27.85;;;;;;;4.57;43.46;100487.36;1780358;80;21009;-40
2022/03/15 01:52:27;;;;;;;59.23;28.20;;;;;;;4.55;43.30;100480.45;1780475;80;21032;-40
2022/03/15 01:54:53;;;;;;;56.55;27.50;;;;;;;4.51;43.83;100480.93;1780413;80;21478;-40
2022/03/15 01:57:19;;;;;;;58.83;28.02;;;;;;;4.48;44.02;100474.89;1780473;80;21029;-40
2022/03/15 01:59:45;;;;;;;52.33;25.65;;;;;;;4.44;44.10;100476.67;1780349;80;21419;-40
2022/03/15 02:02:11;;;;;;;50.65;27.00;;;;;;;4.42;44.38;100475.80;1780342;80;21036;-39
2022/03/15 02:04:37;;;;;;;54.13;27.05;;;;;;;4.38;44.74;100485.41;1780232;80;20978;-40
2022/03/15 02:07:10;;;;;;;59.88;26.40;;;;;;;4.35;44.72;100495.00;1780382;80;21028;-39
2022/03/15 02:09:36;;;;;;;54.45;26.60;;;;;;;4.36;44.46;100495.41;1780486;80;20973;-40
2022/03/15 02:12:03;;;;;;;50.17;24.95;;;;;;;4.33;45.02;100490.22;1780510;80;20993;-40
2022/03/15 02:14:29;;;;;;;51.18;26.20;;;;;;;4.32;44.82;100488.06;1780535;80;21025;-39
2022/03/15 02:16:55;;;;;;;45.08;24.07;;;;;;;4.32;44.99;100495.02;1780527;80;21470;-40
2022/03/15 02:19:22;;;;;;;50.15;24.52;;;;;;;4.31;45.16;100505.89;1780360;80;21004;-40
2022/03/15 02:21:49;;;;;;;51.20;25.63;;;;;;;4.30;44.92;100505.90;1780701;80;21040;-40
2022/03/15 02:24:15;;;;;;;50.38;25.32;;;;;;;4.30;45.33;100499.39;1780530;80;21486;-39
2022/03/15 02:26:41;;;;;;;50.67;24.67;;;;;;;4.29;45.83;100497.65;1780303;80;20969;-39
2022/03/15 02:29:07;;;;;;;52.83;24.55;;;;;;;4.29;45.92;100505.46;1780375;80;21047;-38
2022/03/15 02:31:32;;;;;;;48.48;23.98;;;;;;;4.29;45.44;100496.34;1780387;80;20993;-47
2022/03/15 02:33:58;;;;;;;49.53;25.23;;;;;;;4.27;45.79;100495.06;1780480;80;21028;-38
2022/03/15 02:36:24;;;;;;;52.25;24.57;;;;;;;4.30;45.37;100490.27;1780438;80;21478;-38
2022/03/15 02:38:49;;;;;;;48.35;23.65;;;;;;;4.31;45.62;100486.77;1780521;80;21051;-39
2022/03/15 02:41:15;;;;;;;52.67;24.32;;;;;;;4.33;46.14;100488.92;1780400;80;20973;-39
2022/03/15 02:43:43;;;;;;;56.40;24.00;;;;;;;4.36;44.94;100485.84;1780362;80;21005;-38
2022/03/15 02:46:10;;;;;;;45.75;23.02;;;;;;;4.38;45.15;100496.25;1780419;80;21442;-38
2022/03/15 02:48:36;;;;;;;49.38;22.80;;;;;;;4.45;44.84;100491.40;1780408;80;21032;-39
2022/03/15 02:51:09;;;;;;;56.15;24.18;;;;;;;4.47;45.12;100495.30;1780416;80;21530;-38
2022/03/15 02:53:38;;;;;;;47.53;23.30;;;;;;;4.53;45.77;100497.81;1780424;80;21087;-38
2022/03/15 02:56:10;;;;;;;47.50;23.25;;;;;;;4.57;45.65;100502.14;1780279;80;20982;-38
2022/03/15 02:58:39;;;;;;;45.05;23.07;;;;;;;4.59;45.48;100503.83;1780340;80;21521;-39
2022/03/15 03:01:06;;;;;;;49.48;22.58;;;;;;;4.61;45.90;100499.47;1779100;80;20962;-39
2022/03/15 03:03:34;;;;;;;50.92;25.08;;;;;;;4.64;45.23;100497.70;1780515;80;21006;-39
2022/03/15 03:06:00;;;;;;;44.60;22.40;;;;;;;4.69;45.63;100501.13;1780627;80;20977;-38
2022/03/15 03:08:27;;;;;;;52.40;23.32;;;;;;;4.69;45.56;100498.06;1780295;80;21389;-39
2022/03/15 03:10:55;;;;;;;43.87;21.27;;;;;;;4.77;44.38;100500.61;1780542;80;21647;-39
2022/03/15 03:13:26;;;;;;;45.80;22.40;;;;;;;4.79;44.82;100505.35;1780415;80;21000;-39
2022/03/15 03:15:59;;;;;;;47.33;22.77;;;;;;;4.80;45.46;100496.22;1780375;80;20997;-39
2022/03/15 03:18:32;;;;;;;45.88;22.87;;;;;;;4.83;44.96;100488.79;1780448;80;20993;-38
2022/03/15 03:20:55;;;;;;;45.78;22.22;;;;;;;4.82;45.13;100492.30;1779731;80;21122;-39
2022/03/15 03:23:21;;;;;;;48.95;22.55;;;;;;;4.85;44.80;100490.93;1780486;80;20965;-39
2022/03/15 03:25:47;;;;;;;45.78;22.45;;;;;;;4.86;44.99;100490.06;1780464;80;21516;-39
2022/03/15 03:28:13;;;;;;;43.63;23.45;;;;;;;4.85;45.20;100490.93;1780336;80;20976;-39
2022/03/15 03:30:45;;;;;;;45.00;22.35;;;;;;;4.83;44.83;100494.45;1780263;80;21431;-39
2022/03/15 03:33:09;;;;;;;52.43;23.67;;;;;;;4.80;45.56;100500.55;1779854;80;21160;-41
2022/03/15 03:35:35;;;;;;;46.48;22.77;;;;;;;4.79;45.92;100498.84;1780300;80;21510;-41
2022/03/15 03:38:01;;;;;;;41.92;22.98;;;;;;;4.76;45.40;100496.26;1780382;80;21047;-40
2022/03/15 03:40:27;;;;;;;45.98;22.48;;;;;;;4.74;45.97;100498.02;1780343;80;21009;-40
2022/03/15 03:42:52;;;;;;;48.17;23.22;;;;;;;4.64;46.10;100499.89;1780351;80;21036;-40
2022/03/15 03:45:18;;;;;;;46.70;22.07;;;;;;;4.64;45.85;100495.09;1780470;80;21577;-40
2022/03/15 03:47:44;;;;;;;50.60;23.65;;;;;;;4.60;46.49;100498.17;1780468;80;20965;-41
2022/03/15 03:50:10;;;;;;;47.13;22.00;;;;;;;4.54;46.56;100495.20;1780309;80;21620;-41
2022/03/15 03:52:35;;;;;;;45.67;22.25;;;;;;;4.52;46.11;100498.27;1780414;80;21005;-40
2022/03/15 03:55:02;;;;;;;44.13;21.85;;;;;;;4.47;46.99;100505.27;1780361;80;21012;-40
2022/03/15 03:57:29;;;;;;;44.67;23.23;;;;;;;4.48;46.69;100500.49;1780420;80;21060;-40
2022/03/15 03:59:55;;;;;;;41.90;21.55;;;;;;;4.45;47.18;100507.03;1780378;80;21486;-40
2022/03/15 04:02:20;;;;;;;43.33;22.65;;;;;;;4.49;47.16;100497.44;1780582;80;20969;-40
2022/03/15 04:04:47;;;;;;;44.58;22.75;;;;;;;4.47;47.44;100486.17;1780406;80;20996;-41
2022/03/15 04:07:13;;;;;;;43.92;23.95;;;;;;;4.41;48.25;100481.91;1780322;80;20980;-40
2022/03/15 04:09:39;;;;;;;44.80;22.98;;;;;;;4.37;47.87;100482.82;1780382;80;20969;-40
2022/03/15 04:12:06;;;;;;;51.20;21.95;;;;;;;4.34;47.89;100474.59;1758633;80;21521;-40
2022/03/15 04:14:34;;;;;;;48.90;23.05;;;;;;;4.29;48.20;100471.16;1780431;80;20965;-40
2022/03/15 04:17:02;;;;;;;39.95;21.82;;;;;;;4.25;49.00;100473.38;1780448;80;20993;-38
2022/03/15 04:19:28;;;;;;;51.28;22.75;;;;;;;4.22;48.97;100476.89;1780413;80;21458;-38
2022/03/15 04:21:53;;;;;;;53.55;24.18;;;;;;;4.19;48.92;100489.94;1780358;80;20969;-40
2022/03/15 04:24:19;;;;;;;45.90;22.02;;;;;;;4.15;50.01;100489.55;1780353;80;20993;-40
2022/03/15 04:26:46;;;;;;;45.40;21.97;;;;;;;4.10;51.50;100487.87;1780279;80;20995;-40
2022/03/15 04:29:12;;;;;;;46.30;21.97;;;;;;;4.11;49.68;100485.26;1780500;80;20985;-40
2022/03/15 04:31:37;;;;;;;44.80;21.62;;;;;;;4.09;50.35;100490.89;1780289;80;21532;-40
2022/03/15 04:34:03;;;;;;;42.58;21.45;;;;;;;4.10;50.33;100491.33;1780307;80;21036;-42
2022/03/15 04:36:30;;;;;;;45.48;21.12;;;;;;;4.09;50.51;100498.70;1757160;80;20965;-40
2022/03/15 04:38:56;;;;;;;39.08;20.88;;;;;;;4.11;50.16;100498.27;1780316;80;21006;-40
2022/03/15 04:41:21;;;;;;;41.80;21.07;;;;;;;4.15;50.27;100496.50;1780279;80;20969;-41
2022/03/15 04:43:47;;;;;;;43.90;21.30;;;;;;;4.17;51.24;100492.99;1780282;80;21025;-40
2022/03/15 04:46:13;;;;;;;46.70;21.30;;;;;;;4.15;51.65;100493.90;1780221;80;21028;-40
2022/03/15 04:48:39;;;;;;;43.75;21.15;;;;;;;4.14;51.57;100492.16;1780273;80;21031;-40
2022/03/15 04:51:05;;;;;;;50.00;22.32;;;;;;;4.14;51.41;100493.02;1780389;80;21043;-39
2022/03/15 04:53:31;;;;;;;50.40;24.20;;;;;;;4.12;53.06;100494.77;1780770;80;20969;-39
2022/03/15 04:55:57;;;;;;;83.10;23.85;;;;;;;4.08;53.83;100489.62;1780427;80;21525;-39
2022/03/15 04:58:23;;;;;;;57.62;23.57;;;;;;;4.08;52.91;100487.87;1780591;80;21457;-39
2022/03/15 05:00:49;;;;;;;50.23;23.65;;;;;;;4.10;52.77;100489.17;1780404;80;20993;-40
2022/03/15 05:03:18;;;;;;;48.95;22.15;;;;;;;4.15;52.91;100488.25;1780430;80;21044;-39
2022/03/15 05:05:45;;;;;;;45.92;22.17;;;;;;;4.19;53.25;100483.42;1780462;80;21525;-39
2022/03/15 05:08:11;;;;;;;49.83;23.00;;;;;;;4.21;53.91;100476.45;1780750;80;20994;-39
2022/03/15 05:13:21;;;;;;;48.13;21.73;;;;;;;4.29;54.19;100476.37;1780468;80;20985;-40
2022/03/15 05:15:48;;;;;;;47.65;22.45;;;;;;;4.31;53.99;100475.05;1780452;80;20992;-39
2022/03/15 05:18:14;;;;;;;41.07;21.93;;;;;;;4.35;54.29;100488.05;1780760;80;21101;-39
2022/03/15 05:20:40;;;;;;;41.20;21.02;;;;;;;4.39;53.90;100482.36;1780416;80;21043;-39
2022/03/15 05:23:05;;;;;;;41.75;21.55;;;;;;;4.41;53.87;100481.45;1780418;80;21025;-39
2022/03/15 05:25:31;;;;;;;43.90;21.62;;;;;;;4.48;54.10;100486.61;1780445;80;21001;-39
2022/03/15 05:27:57;;;;;;;39.70;20.90;;;;;;;4.52;53.34;100494.36;1780478;80;21000;-39
2022/03/15 05:30:24;;;;;;;49.65;21.05;;;;;;;4.55;53.85;100489.58;1780549;80;20981;-39
2022/03/15 05:32:49;;;;;;;47.53;21.48;;;;;;;4.58;54.07;100492.13;1780820;80;21474;-39
2022/03/15 05:35:16;;;;;;;42.10;21.68;;;;;;;4.61;53.85;100488.19;1780462;80;21036;-39
2022/03/15 05:37:42;;;;;;;37.17;20.63;;;;;;;4.65;54.68;100478.59;1780760;80;20973;-39
2022/03/15 05:40:10;;;;;;;41.92;20.97;;;;;;;4.67;54.59;100480.73;1780442;80;20977;-39
2022/03/15 05:42:36;;;;;;;44.23;20.65;;;;;;;4.72;53.40;100488.92;1780323;80;21023;-39
2022/03/15 05:45:03;;;;;;;40.83;21.48;;;;;;;4.72;54.03;100488.92;1780482;80;21036;-39
2022/03/15 05:47:29;;;;;;;45.88;20.72;;;;;;;4.84;54.66;100490.95;1780465;80;21828;-39
2022/03/15 05:49:55;;;;;;;42.85;21.45;;;;;;;4.84;54.66;100490.95;1780481;80;21074;-39
2022/03/15 05:52:21;;;;;;;39.53;20.27;;;;;;;4.90;54.62;100494.34;1780425;80;20965;-39
2022/03/15 05:54:46;;;;;;;44.53;19.77;;;;;;;4.97;53.80;100496.45;1780286;80;20997;-38
2022/03/15 05:57:12;;;;;;;39.42;20.00;;;;;;;4.97;55.57;100502.52;1780191;80;21016;-39
2022/03/15 05:59:38;;;;;;;38.10;19.52;;;;;;;5.04;54.52;100493.29;1780404;80;21003;-38
2022/03/15 06:02:04;;;;;;;43.48;19.17;;;;;;;5.09;55.30;100494.09;1780390;80;21048;-39
2022/03/15 06:04:30;;;;;;;38.28;18.45;;;;;;;5.14;55.90;100489.69;1780489;80;20985;-39
2022/03/15 06:06:57;;;;;;;37.67;19.23;;;;;;;5.22;54.59;100489.16;1780464;80;21367;-39
2022/03/15 06:09:24;;;;;;;39.90;18.70;;;;;;;5.28;54.94;100486.91;1780688;80;21494;-39
2022/03/15 06:11:51;;;;;;;33.30;18.12;;;;;;;5.32;55.03;100488.12;1780516;80;21031;-39
2022/03/15 06:14:20;;;;;;;33.70;18.12;;;;;;;5.33;57.12;100498.10;1780538;80;21004;-39
2022/03/15 06:16:47;;;;;;;36.13;18.87;;;;;;;5.35;58.49;100491.14;1779323;80;21040;-39
2022/03/15 06:19:13;;;;;;;37.70;19.30;;;;;;;5.39;57.41;100496.28;1780615;80;21012;-39
2022/03/15 06:21:39;;;;;;;34.50;19.75;;;;;;;5.47;56.78;100503.12;1780367;80;21419;-39
2022/03/15 06:24:08;;;;;;;37.73;21.13;;;;;;;5.51;57.11;100494.36;1780606;80;21001;-39
2022/03/15 06:26:37;;;;;;;33.33;18.75;;;;;;;5.56;57.21;100499.07;1779392;80;20996;-40
2022/03/15 06:29:04;;;;;;;38.02;19.90;;;;;;;5.58;58.30;100494.69;1780230;80;20965;-39
2022/03/15 06:31:32;;;;;;;39.38;20.77;;;;;;;5.59;59.85;100492.52;1780583;80;21005;-40
2022/03/15 06:33:59;;;;;;;41.23;21.20;;;;;;;5.64;58.38;100500.25;1780522;80;21493;-40
2022/03/15 06:36:25;;;;;;;38.13;20.37;;;;;;;5.69;57.69;100495.38;1780496;80;21005;-46
2022/03/15 06:38:51;;;;;;;44.30;22.02;;;;;;;5.70;59.31;100499.72;1780331;80;21012;-38
2022/03/15 06:41:17;;;;;;;39.98;20.77;;;;;;;5.77;58.24;100492.22;1780324;80;20997;-39
2022/03/15 06:43:43;;;;;;;35.45;20.77;;;;;;;5.83;57.92;100491.70;1780461;80;21024;-40
2022/03/15 06:46:09;;;;;;;38.80;18.98;;;;;;;5.90;57.35;100495.94;1780367;80;20997;-40
2022/03/15 06:48:35;;;;;;;35.38;19.82;;;;;;;5.91;59.51;100502.86;1780505;80;21400;-40
2022/03/15 06:51:02;;;;;;;39.00;19.62;;;;;;;5.94;58.92;100506.28;1780511;80;21888;-40
2022/03/15 06:53:29;;;;;;;37.42;18.75;;;;;;;6.03;57.97;100505.30;1780578;80;20993;-40
2022/03/15 06:55:55;;;;;;;32.67;18.67;;;;;;;6.09;57.94;100510.44;1780674;80;21032;-41
2022/03/15 06:58:21;;;;;;;38.23;18.62;;;;;;;6.11;59.94;100516.91;1780274;80;21021;-41
2022/03/15 07:00:50;;;;;;;28.27;17.92;;;;;;;6.13;58.93;100508.19;1780452;80;21489;-40
2022/03/15 07:03:16;;;;;;;35.73;18.80;;;;;;;6.20;59.23;100514.59;1780433;80;21004;-39
2022/03/15 07:05:41;;;;;;;28.60;17.65;;;;;;;6.27;58.88;100513.14;1780335;80;20993;-40
2022/03/15 07:08:07;;;;;;;38.20;18.05;;;;;;;6.28;59.63;100516.64;1780362;80;21008;-40
2022/03/15 07:10:34;;;;;;;40.20;19.45;;;;;;;6.27;60.11;100516.21;1780395;80;20969;-39
2022/03/15 07:13:00;;;;;;;34.05;18.85;;;;;;;6.30;61.19;100514.86;1780752;80;21490;-41
2022/03/15 07:15:27;;;;;;;26.97;17.15;;;;;;;6.35;61.56;100516.95;1780463;80;21008;-39
2022/03/15 07:17:56;;;;;;;34.40;17.07;;;;;;;6.46;60.69;100517.61;1780405;80;20969;-40
2022/03/15 07:20:24;;;;;;;32.83;17.85;;;;;;;6.54;60.36;100516.14;1780462;80;21008;-39
2022/03/15 07:22:51;;;;;;;34.90;17.37;;;;;;;6.57;61.77;100520.02;1780547;80;21004;-40
2022/03/15 07:25:19;;;;;;;29.95;16.70;;;;;;;6.64;61.82;100516.82;1780470;80;20958;-40
2022/03/15 07:27:45;;;;;;;26.73;16.52;;;;;;;6.69;61.69;100517.17;1780409;80;20977;-40
2022/03/15 07:30:12;;;;;;;25.92;16.45;;;;;;;6.79;60.95;100522.22;1780330;80;21044;-41
2022/03/15 07:32:37;;;;;;;27.42;17.92;;;;;;;6.80;64.17;100522.16;1780292;80;21041;-40
2022/03/15 07:35:05;;;;;;;29.42;17.32;;;;;;;6.90;62.61;100517.63;1780302;80;21001;-40
2022/03/15 07:37:31;;;;;;;29.42;16.87;;;;;;;7.00;61.84;100513.05;1780495;80;21004;-41
2022/03/15 07:39:56;;;;;;;30.57;15.95;;;;;;;7.10;61.61;100515.90;1780317;80;20969;-40
2022/03/15 07:42:23;;;;;;;28.45;16.60;;;;;;;7.16;64.18;100522.30;1780524;80;21024;-41
2022/03/15 07:44:49;;;;;;;31.12;16.85;;;;;;;7.28;62.10;100515.95;1780025;80;20988;-42
2022/03/15 07:47:15;;;;;;;25.15;15.98;;;;;;;7.37;61.60;100515.74;1780717;80;21001;-40
2022/03/15 07:49:42;;;;;;;28.83;16.27;;;;;;;7.45;61.80;100510.33;1780307;80;21008;-40
2022/03/15 07:52:10;;;;;;;23.50;16.17;;;;;;;7.49;64.07;100509.35;1780590;80;21057;-41
2022/03/15 07:54:36;;;;;;;27.45;16.52;;;;;;;7.47;63.76;100513.77;1780515;80;21063;-41
2022/03/15 07:57:03;;;;;;;26.15;16.80;;;;;;;7.53;62.71;100502.29;1780340;80;21510;-40
2022/03/15 07:59:29;;;;;;;25.30;16.67;;;;;;;7.53;63.17;100501.87;1780611;80;21498;-40
2022/03/15 08:01:55;;;;;;;27.35;16.10;;;;;;;7.58;62.37;100503.90;1780444;80;21760;-40
2022/03/15 08:04:21;;;;;;;27.10;16.55;;;;;;;7.65;63.27;100500.24;1780286;80;20977;-41
2022/03/15 08:06:47;;;;;;;25.23;16.45;;;;;;;7.71;62.29;100501.00;1780391;80;21651;-40
2022/03/15 08:09:14;;;;;;;27.77;16.70;;;;;;;7.77;62.12;100502.17;1780298;80;21088;-40
2022/03/15 08:11:45;;;;;;;26.57;16.80;;;;;;;7.80;62.63;100504.70;1780450;80;21035;-41
2022/03/15 08:14:12;;;;;;;28.10;16.70;;;;;;;7.78;63.45;100498.19;1780191;80;20961;-40
2022/03/15 08:16:38;;;;;;;25.55;16.42;;;;;;;7.88;62.20;100504.08;1780568;80;21004;-40
2022/03/15 08:19:04;;;;;;;28.57;16.70;;;;;;;7.83;64.14;100515.11;1780275;80;21875;-40
2022/03/15 08:21:31;;;;;;;25.37;15.72;;;;;;;7.86;62.73;100501.95;1780342;80;20962;-41
2022/03/15 08:23:57;;;;;;;31.42;16.25;;;;;;;7.88;62.58;100506.70;1780471;80;20957;-40
2022/03/15 08:26:23;;;;;;;27.95;15.80;;;;;;;7.88;62.88;100508.86;1780286;80;21024;-40
2022/03/15 08:28:50;;;;;;;26.35;15.63;;;;;;;7.94;62.54;100503.91;1780489;80;20965;-40
2022/03/15 08:31:17;;;;;;;25.32;15.13;;;;;;;8.04;63.65;100510.66;1780480;80;20997;-41
2022/03/15 08:33:44;;;;;;;23.35;15.70;;;;;;;8.13;61.93;100508.68;1780616;80;21521;-41
2022/03/15 08:36:10;;;;;;;;;;;;;;;8.20;62.16;100516.80;1783235;80;21000;-40
2022/03/15 08:38:36;;;;;;;25.32;14.03;;;;;;;8.19;64.12;100514.63;1780515;80;20472;-41
2022/03/15 08:41:03;;;;;;;26.87;15.83;;;;;;;8.21;62.74;100509.36;1780488;80;21041;-41
2022/03/15 08:43:30;;;;;;;23.27;15.38;;;;;;;8.25;62.50;100509.22;1780465;80;20992;-40
2022/03/15 08:45:56;;;;;;;30.52;15.93;;;;;;;8.30;63.59;100511.73;1780543;80;21013;-46
2022/03/15 08:48:22;;;;;;;25.05;14.40;;;;;;;8.36;62.93;100503.70;1780474;80;21032;-41
2022/03/15 08:50:48;;;;;;;26.33;14.98;;;;;;;8.45;63.55;100502.17;1775827;80;21016;-40
2022/03/15 08:53:14;;;;;;;24.67;15.13;;;;;;;8.60;62.82;100502.66;1778265;80;21498;-41
2022/03/15 08:55:40;;;;;;;27.82;15.00;;;;;;;8.72;63.95;100504.94;1776335;80;21466;-42
2022/03/15 08:58:06;;;;;;;28.47;15.15;;;;;;;8.86;62.70;100505.88;1778217;80;21025;-41
2022/03/15 09:00:33;;;;;;;22.22;14.43;;;;;;;8.93;63.87;100503.91;1780451;80;21005;-41
2022/03/15 09:02:59;;;;;;;27.40;15.05;;;;;;;8.99;63.51;100498.50;1780416;80;20992;-40
2022/03/15 09:05:26;;;;;;;25.57;15.85;;;;;;;9.06;63.68;100491.28;1780563;80;20957;-41
2022/03/15 09:07:53;;;;;;;25.10;14.47;;;;;;;9.19;63.73;100483.01;1780691;80;21442;-40
2022/03/15 09:10:22;;;;;;;22.10;14.70;;;;;;;9.33;64.14;100481.71;1780444;80;20993;-39
2022/03/15 09:12:49;;;;;;;28.32;14.07;;;;;;;9.53;63.04;100478.03;1777593;80;21021;-42
2022/03/15 09:15:15;;;;;;;28.38;14.50;;;;;;;9.73;62.19;100483.06;1780549;80;21012;-41
2022/03/15 09:17:41;;;;;;;22.93;13.75;;;;;;;9.82;62.23;100485.85;1780294;80;20973;-40
2022/03/15 09:20:09;;;;;;;23.83;13.25;;;;;;;9.90;61.91;100479.44;1779210;80;21416;-41
2022/03/15 09:22:35;;;;;;;19.02;13.58;;;;;;;10.01;61.75;100475.61;1780404;80;20972;-48
2022/03/15 09:25:03;;;;;;;19.55;13.32;;;;;;;10.22;61.38;100476.62;1777287;80;21482;-41
2022/03/15 09:27:29;;;;;;;23.87;14.20;;;;;;;10.52;61.38;100468.98;1780042;80;20962;-42
2022/03/15 09:29:55;;;;;;;25.23;13.18;;;;;;;10.97;60.56;100475.25;1780141;80;20977;-41
2022/03/15 09:32:22;;;;;;;18.37;13.03;;;;;;;11.04;58.68;100470.15;1780260;80;21884;-41
2022/03/15 09:34:48;;;;;;;18.42;12.78;;;;;;;11.21;59.01;100473.91;1779852;80;21485;-41
2022/03/15 09:37:14;;;;;;;19.15;13.32;;;;;;;11.52;58.67;100467.80;1780358;80;21624;-40
2022/03/15 09:39:40;;;;;;;23.07;12.90;;;;;;;11.35;57.75;100458.42;1780019;80;20997;-40
2022/03/15 09:42:08;;;;;;;25.48;12.80;;;;;;;11.38;57.53;100462.70;1779677;80;20981;-40
2022/03/15 09:44:38;;;;;;;22.65;13.43;;;;;;;11.32;57.33;100460.70;1774428;80;21027;-48
2022/03/15 09:47:06;;;;;;;23.85;12.58;;;;;;;11.36;57.19;100456.16;1775195;80;20996;-46
2022/03/15 09:49:34;;;;;;;20.08;12.15;;;;;;;11.58;56.90;100455.30;1780071;80;21587;-50
2022/03/15 09:52:00;;;;;;;;;;;;;;;11.82;56.96;100456.06;1782841;80;20981;-46
2022/03/15 09:54:29;;;;;;;18.80;12.50;;;;;;;11.73;57.58;100449.39;1780752;80;20116;-44
2022/03/15 09:56:57;;;;;;;25.02;12.90;;;;;;;11.76;56.25;100450.59;1780031;80;20984;-48
2022/03/15 09:59:26;;;;;;;25.02;12.70;;;;;;;11.67;55.66;100445.70;1760610;80;21029;-48
2022/03/15 10:01:54;;;;;;;22.13;13.08;;;;;;;11.54;57.34;100446.67;1786625;79;21471;-49
2022/03/15 10:04:22;;;;;;;19.05;12.50;;;;;;;11.57;55.90;100445.67;1757813;81;21003;-46
2022/03/15 10:06:48;;;;;;;25.45;12.93;;;;;;;11.52;56.03;100448.52;1779166;79;21538;-51
2022/03/15 10:09:15;;;;;;;15.15;10.58;;;;;;;11.42;55.94;100446.69;1797939;79;20978;-41
2022/03/15 10:11:42;;;;;;;14.43;9.90;;;;;;;11.41;55.79;100439.73;1805219;79;20954;-50
2022/03/15 10:14:10;;;;;;;13.62;9.98;;;;;;;11.40;55.72;100444.58;1804583;79;21061;-48
2022/03/15 10:16:42;;;;;;;20.15;11.40;;;;;;;11.34;56.01;100438.26;1803970;79;21057;-46
2022/03/15 10:19:14;;;;;;;37.10;10.95;;;;;;;11.40;55.63;100432.73;1766866;79;21053;-46
2022/03/15 10:21:51;;;;;;;14.83;10.00;;;;;;;11.38;56.00;100435.04;1754948;82;21077;-43
2022/03/15 10:24:23;;;;;;;17.37;9.83;;;;;;;11.46;55.75;100440.41;1756672;81;20988;-44
2022/03/15 10:26:56;;;;;;;26.77;10.68;;;;;;;11.48;55.40;100438.56;1770536;80;20985;-41
2022/03/15 10:29:25;;;;;;;16.05;9.63;;;;;;;11.56;56.14;100433.44;1774710;80;21006;-46
2022/03/15 10:31:54;;;;;;;17.87;10.50;;;;;;;11.63;55.14;100438.39;1751039;80;21125;-43
2022/03/15 10:34:22;;;;;;;15.40;9.88;;;;;;;11.58;55.10;100426.33;1774914;80;21041;-47
2022/03/15 10:36:54;;;;;;;16.75;9.73;;;;;;;11.55;55.03;100426.00;1787878;80;21028;-47
2022/03/15 10:39:20;;;;;;;15.78;9.23;;;;;;;11.60;55.41;100424.01;1769785;80;21428;-42
2022/03/15 10:41:56;;;;;;;15.60;9.63;;;;;;;11.63;54.79;100427.00;1771207;80;21052;-49
2022/03/15 10:44:34;;;;;;;17.98;8.55;;;;;;;11.61;54.76;100424.89;1787995;80;21059;-44
2022/03/15 10:47:13;;;;;;;13.35;8.25;;;;;;;11.69;54.23;100420.98;1788632;80;21597;-40
2022/03/15 10:49:56;;;;;;;14.38;8.00;;;;;;;11.90;54.12;100413.16;1788057;80;21000;-43
2022/03/15 10:52:40;;;;;;;21.12;9.05;;;;;;;12.18;53.83;100414.58;1784265;80;21029;-43
2022/03/15 10:55:28;;;;;;;12.68;8.75;;;;;;;12.20;53.46;100425.91;1784667;80;20968;-45
2022/03/15 10:58:01;;;;;;;15.38;8.93;;;;;;;12.19;53.00;100420.27;1786908;80;21895;-47
2022/03/15 11:00:35;;;;;;;15.80;8.78;;;;;;;11.90;53.67;100409.20;1780485;80;21000;-45
2022/03/15 11:03:01;;;;;;;16.90;9.23;;;;;;;11.88;53.58;100404.42;1779816;80;20985;-39
2022/03/15 11:05:34;;;;;;;13.72;8.53;;;;;;;11.86;53.34;100402.29;1780322;80;21000;-40
2022/03/15 11:08:07;;;;;;;13.72;8.88;;;;;;;11.50;54.19;100399.84;1780167;80;20972;-40
2022/03/15 11:10:35;;;;;;;13.60;8.43;;;;;;;11.47;54.05;100396.00;1769947;80;21026;-40
2022/03/15 11:13:12;;;;;;;13.90;8.33;;;;;;;11.49;54.28;100400.74;1747520;81;21023;-40
2022/03/15 11:15:43;;;;;;;16.95;9.58;;;;;;;11.45;54.42;100398.31;1768427;81;20944;-41
2022/03/15 11:18:12;;;;;;;13.03;8.58;;;;;;;11.56;54.19;100395.23;1769247;81;20968;-40